Time;durP1;ratioP1;P1;durP2;ratioP2;P2;SDS_P1;SDS_P2;PMS_P1;PMS_P2;Temp;Humidity;BMP_temperature;BMP_pressure;BME280_temperature;BME280_humidity;BME280_pressure;Samples;Min_cycle;Max_cycle;Signal;HPM_P1;HPM_P2
2023/12/11 00:01:02;;;;;;;;;;;;;;;17.70;42.64;101024.16;4987651;28;1387;-49
2023/12/11 00:03:28;;;;;;;;;;;;;;;16.88;44.19;101023.97;4986769;28;1898;-50
2023/12/11 00:05:53;;;;;;;;;;;;;;;16.37;44.96;101030.91;4993534;28;1135;-50
2023/12/11 00:08:19;;;;;;;;;;;;;;;16.80;44.63;101032.75;4986491;28;1089;-49
2023/12/11 00:10:44;;;;;;;;;;;;;;;17.46;43.10;101034.88;4981258;28;1127;-47
2023/12/11 00:13:10;;;;;;;;;;;;;;;16.60;44.64;101040.63;4980956;28;1224;-48
2023/12/11 00:15:36;;;;;;;;;;;;;;;17.40;43.53;101047.78;4989859;28;1092;-47
2023/12/11 00:18:02;;;;;;;;;;;;;;;17.46;42.92;101043.13;4986473;28;1137;-50
2023/12/11 00:20:27;;;;;;;;;;;;;;;16.72;44.20;101040.41;4997069;28;1139;-48
2023/12/11 00:22:54;;;;;;;;;;;;;;;16.57;44.73;101048.56;4988512;28;1902;-47
2023/12/11 00:25:19;;;;;;;;;;;;;;;18.22;41.70;101052.47;4982452;28;1055;-51
2023/12/11 00:27:45;;;;;;;;;;;;;;;16.90;44.08;101041.88;4988353;28;1080;-52
2023/12/11 00:30:11;;;;;;;;;;;;;;;16.57;44.34;101040.34;4991354;28;1163;-53
2023/12/11 00:32:36;;;;;;;;;;;;;;;16.21;44.76;101032.72;4996600;28;1032;-50
2023/12/11 00:35:02;;;;;;;;;;;;;;;17.90;42.36;101036.25;4983543;28;1134;-51
2023/12/11 00:37:28;;;;;;;;;;;;;;;16.77;44.66;101036.84;4993759;28;1160;-50
2023/12/11 00:39:53;;;;;;;;;;;;;;;16.43;44.95;101046.28;4981523;28;1311;-50
2023/12/11 00:42:19;;;;;;;;;;;;;;;17.81;42.46;101043.41;4985154;28;1151;-50
2023/12/11 00:44:44;;;;;;;;;;;;;;;16.77;44.33;101047.84;4994622;28;1985;-49
2023/12/11 00:47:10;;;;;;;;;;;;;;;18.25;41.55;101048.34;4975658;28;1076;-49
2023/12/11 00:49:36;;;;;;;;;;;;;;;17.71;42.68;101045.06;4983311;28;1068;-53
2023/12/11 00:52:02;;;;;;;;;;;;;;;16.91;44.14;101045.44;4988385;28;1130;-46
2023/12/11 00:54:27;;;;;;;;;;;;;;;16.56;44.05;101044.16;4978353;28;1132;-53
2023/12/11 00:56:53;;;;;;;;;;;;;;;17.15;43.78;101039.47;4996004;28;1047;-52
2023/12/11 00:59:19;;;;;;;;;;;;;;;17.21;43.50;101044.72;4983170;28;1103;-50
2023/12/11 01:01:45;;;;;;;;;;;;;;;16.54;44.42;101043.63;4995194;28;1036;-51
2023/12/11 01:04:11;;;;;;;;;;;;;;;17.68;42.89;101047.53;4995150;28;1984;-49
2023/12/11 01:06:37;;;;;;;;;;;;;;;17.36;43.28;101046.69;4984749;28;1069;-55
2023/12/11 01:09:02;;;;;;;;;;;;;;;16.70;44.44;101044.50;4982063;28;1076;-48
2023/12/11 01:11:28;;;;;;;;;;;;;;;16.51;44.16;101041.38;4977305;28;1072;-47
2023/12/11 01:13:53;;;;;;;;;;;;;;;17.65;42.59;101037.91;4982417;28;1084;-50
2023/12/11 01:16:19;;;;;;;;;;;;;;;16.69;44.54;101035.47;4986560;28;1339;-50
2023/12/11 01:18:45;;;;;;;;;;;;;;;16.28;44.89;101032.47;4980998;28;1314;-48
2023/12/11 01:21:10;;;;;;;;;;;;;;;17.05;43.90;101032.03;4999893;28;1084;-50
2023/12/11 01:23:36;;;;;;;;;;;;;;;17.41;43.14;101027.44;4984391;28;1981;-48
2023/12/11 01:26:01;;;;;;;;;;;;;;;16.64;44.95;101021.69;4980790;28;1246;-51
2023/12/11 01:28:27;;;;;;;;;;;;;;;18.35;41.02;101026.28;4980078;28;1104;-54
2023/12/11 01:30:52;;;;;;;;;;;;;;;17.16;43.34;101021.91;4988447;28;933;-52
2023/12/11 01:33:18;;;;;;;;;;;;;;;16.69;44.31;101032.72;4987018;28;1180;-51
2023/12/11 01:35:44;;;;;;;;;;;;;;;17.86;42.18;101024.16;5000057;28;1118;-56
2023/12/11 01:38:09;;;;;;;;;;;;;;;17.00;43.73;101027.34;4991320;28;1152;-48
2023/12/11 01:40:35;;;;;;;;;;;;;;;16.60;44.04;101021.41;4991972;28;1134;-49
2023/12/11 01:43:13;;;;;;;;;;;;;;;16.33;44.38;101027.03;4992696;28;1982;-49
2023/12/11 01:45:39;;;;;;;;;;;;;;;17.88;42.19;101021.94;4980045;28;1168;-52
2023/12/11 01:48:04;;;;;;;;;;;;;;;16.75;44.17;101015.16;4970524;28;1200;-52
2023/12/11 01:50:30;;;;;;;;;;;;;;;18.02;41.86;101030.47;4981699;28;1044;-53
2023/12/11 01:52:56;;;;;;;;;;;;;;;17.72;42.31;101027.44;4982619;28;1064;-49
2023/12/11 01:55:21;;;;;;;;;;;;;;;16.86;43.93;101032.50;4990308;28;1195;-50
2023/12/11 01:57:47;;;;;;;;;;;;;;;16.57;44.40;101034.84;4981267;28;1107;-49
2023/12/11 02:00:12;;;;;;;;;;;;;;;17.97;41.82;101039.56;4990444;28;1203;-51
2023/12/11 02:02:38;;;;;;;;;;;;;;;16.93;43.89;101035.84;4993337;28;1977;-50
2023/12/11 02:05:04;;;;;;;;;;;;;;;16.82;44.12;101038.81;4990307;28;1203;-48
2023/12/11 02:07:29;;;;;;;;;;;;;;;17.55;42.73;101032.41;4981094;28;1219;-48
2023/12/11 02:09:55;;;;;;;;;;;;;;;16.76;44.33;101036.03;4998569;28;1126;-51
2023/12/11 02:12:21;;;;;;;;;;;;;;;16.44;44.28;101030.66;4984755;28;1355;-52
2023/12/11 02:14:46;;;;;;;;;;;;;;;17.16;43.85;101036.47;4997636;28;977;-51
2023/12/11 02:17:12;;;;;;;;;;;;;;;17.74;42.15;101043.66;4992609;28;1081;-52
2023/12/11 02:19:38;;;;;;;;;;;;;;;16.79;44.08;101045.66;4979539;28;902;-51
2023/12/11 02:22:03;;;;;;;;;;;;;;;18.39;41.24;101043.91;4992090;28;1081;-50
2023/12/11 02:24:31;;;;;;;;;;;;;;;17.45;43.04;101045.03;4985278;28;1903;-49
2023/12/11 02:26:57;;;;;;;;;;;;;;;16.87;43.67;101044.31;4985270;28;1172;-51
2023/12/11 02:29:24;;;;;;;;;;;;;;;16.62;44.01;101042.28;4983030;28;1048;-52
2023/12/11 02:31:49;;;;;;;;;;;;;;;16.80;44.12;101041.78;4992086;28;1239;-51
2023/12/11 02:34:15;;;;;;;;;;;;;;;18.35;41.37;101034.56;4986222;28;1492;-51
2023/12/11 02:36:40;;;;;;;;;;;;;;;17.05;43.78;101035.59;4996450;28;1031;-52
2023/12/11 02:39:06;;;;;;;;;;;;;;;16.62;44.04;101032.13;4987100;28;1052;-52
2023/12/11 02:41:31;;;;;;;;;;;;;;;16.50;43.96;101031.53;4993482;28;1037;-51
2023/12/11 02:43:58;;;;;;;;;;;;;;;18.00;41.83;101041.78;4978787;28;1914;-48
2023/12/11 02:46:23;;;;;;;;;;;;;;;16.85;44.34;101041.81;4997211;28;1203;-52
2023/12/11 02:48:49;;;;;;;;;;;;;;;16.48;44.45;101036.44;4998414;28;1127;-50
2023/12/11 02:51:17;;;;;;;;;;;;;;;17.23;43.60;101036.19;4992436;28;1131;-50
2023/12/11 02:53:43;;;;;;;;;;;;;;;17.30;43.11;101044.19;4990785;28;1045;-51
2023/12/11 02:56:09;;;;;;;;;;;;;;;16.57;44.33;101046.66;4985175;28;1123;-51
2023/12/11 02:58:34;;;;;;;;;;;;;;;16.67;44.75;101039.56;4986362;28;1525;-53
2023/12/11 03:01:00;;;;;;;;;;;;;;;17.62;42.49;101038.44;4984036;28;1147;-50
2023/12/11 03:03:26;;;;;;;;;;;;;;;16.66;44.22;101044.22;4996624;28;1898;-53
2023/12/11 03:05:51;;;;;;;;;;;;;;;16.38;44.28;101038.06;4984921;28;1196;-52
2023/12/11 03:08:17;;;;;;;;;;;;;;;17.24;43.86;101035.94;4997983;28;1099;-49
2023/12/11 03:10:43;;;;;;;;;;;;;;;17.83;42.27;101039.28;4985154;28;1023;-52
2023/12/11 03:13:08;;;;;;;;;;;;;;;16.74;44.54;101043.69;4998021;28;1080;-48
2023/12/11 03:15:34;;;;;;;;;;;;;;;16.75;44.51;101042.59;4986893;28;1114;-51
2023/12/11 03:17:59;;;;;;;;;;;;;;;18.40;41.14;101031.78;4990253;28;1222;-50
2023/12/11 03:20:25;;;;;;;;;;;;;;;16.99;43.89;101035.88;4979563;28;1087;-52
2023/12/11 03:22:51;;;;;;;;;;;;;;;16.63;44.50;101035.69;4989402;28;1915;-50
2023/12/11 03:25:16;;;;;;;;;;;;;;;17.35;43.51;101028.53;4984356;28;1067;-50
2023/12/11 03:27:42;;;;;;;;;;;;;;;17.44;43.26;101026.06;4995234;28;880;-52
2023/12/11 03:30:07;;;;;;;;;;;;;;;16.69;44.34;101026.38;4983397;28;1301;-51
2023/12/11 03:32:33;;;;;;;;;;;;;;;16.47;44.25;101030.13;4986200;28;1135;-54
2023/12/11 03:34:59;;;;;;;;;;;;;;;17.76;42.68;101023.03;4990984;28;1068;-52
2023/12/11 03:37:24;;;;;;;;;;;;;;;16.86;44.14;101026.19;4981174;28;1144;-52
2023/12/11 03:39:50;;;;;;;;;;;;;;;16.62;44.13;101026.63;4989807;28;1068;-50
2023/12/11 03:42:15;;;;;;;;;;;;;;;16.38;44.41;101021.59;4985175;28;1210;-49
2023/12/11 03:44:41;;;;;;;;;;;;;;;17.55;43.35;101013.16;4993690;28;1969;-53
2023/12/11 03:47:07;;;;;;;;;;;;;;;17.06;43.88;101008.97;4985601;28;1153;-53
2023/12/11 03:49:33;;;;;;;;;;;;;;;16.45;44.92;101004.03;4984112;28;1067;-53
2023/12/11 03:51:59;;;;;;;;;;;;;;;16.69;44.79;101004.41;4982507;28;896;-55
2023/12/11 03:54:24;;;;;;;;;;;;;;;17.57;42.73;100994.44;4990867;28;1056;-51
2023/12/11 03:56:50;;;;;;;;;;;;;;;16.60;44.64;101001.34;4985745;28;1064;-52
2023/12/11 03:59:15;;;;;;;;;;;;;;;18.04;41.89;101009.84;4983093;28;1164;-49
2023/12/11 04:01:41;;;;;;;;;;;;;;;17.19;43.74;100997.44;4975062;28;1338;-52
2023/12/11 04:04:07;;;;;;;;;;;;;;;17.06;44.17;100987.78;4989123;28;1894;-51
2023/12/11 04:06:32;;;;;;;;;;;;;;;18.17;41.62;100986.41;4987916;28;1195;-55
2023/12/11 04:08:58;;;;;;;;;;;;;;;16.99;44.10;100998.22;4996291;28;1101;-51
2023/12/11 04:11:23;;;;;;;;;;;;;;;16.58;44.51;100996.13;4971414;28;1100;-55
2023/12/11 04:13:49;;;;;;;;;;;;;;;17.52;43.16;100994.47;4976970;28;1101;-50
2023/12/11 04:16:14;;;;;;;;;;;;;;;17.00;44.13;100988.06;4991862;28;894;-50
2023/12/11 04:18:41;;;;;;;;;;;;;;;16.56;44.66;100986.50;4996419;28;1024;-50
2023/12/11 04:21:06;;;;;;;;;;;;;;;16.40;44.16;100999.34;4984438;28;1630;-51
2023/12/11 04:23:32;;;;;;;;;;;;;;;16.25;44.51;101008.31;4990038;28;1902;-52
2023/12/11 04:25:58;;;;;;;;;;;;;;;17.45;43.55;101006.53;4990118;28;1163;-46
2023/12/11 04:28:27;;;;;;;;;;;;;;;16.49;45.00;101007.91;4986965;28;1152;-49
2023/12/11 04:30:52;;;;;;;;;;;;;;;17.69;43.26;101005.19;4981769;28;1068;-49
2023/12/11 04:33:18;;;;;;;;;;;;;;;17.22;43.68;101001.56;4980619;28;1144;-53
2023/12/11 04:35:44;;;;;;;;;;;;;;;16.59;44.66;100994.22;4968301;28;1103;-51
2023/12/11 04:38:10;;;;;;;;;;;;;;;17.56;43.51;101003.81;4982902;28;1104;-48
2023/12/11 04:40:36;;;;;;;;;;;;;;;17.00;44.14;101001.78;4982357;28;1171;-51
2023/12/11 04:43:01;;;;;;;;;;;;;;;16.60;45.06;101002.19;4974846;28;1971;-50
2023/12/11 04:45:27;;;;;;;;;;;;;;;17.84;42.33;101001.56;4969918;28;1096;-49
2023/12/11 04:47:52;;;;;;;;;;;;;;;16.70;44.54;101006.88;4981184;28;1088;-51
2023/12/11 04:50:18;;;;;;;;;;;;;;;16.45;44.67;101009.53;4973672;28;1281;-52
2023/12/11 04:52:44;;;;;;;;;;;;;;;17.93;42.37;101021.97;4976382;28;1392;-51
2023/12/11 04:55:09;;;;;;;;;;;;;;;17.05;44.04;101008.13;4981835;28;1090;-56
2023/12/11 04:57:35;;;;;;;;;;;;;;;16.63;44.73;101009.06;4996058;28;1147;-56
2023/12/11 05:00:01;;;;;;;;;;;;;;;17.88;42.16;101008.19;4988114;28;1033;-56
2023/12/11 05:02:26;;;;;;;;;;;;;;;16.80;44.47;101005.28;5000661;28;1080;-55
2023/12/11 05:04:52;;;;;;;;;;;;;;;17.03;44.45;100998.53;4999304;28;1910;-52
2023/12/11 05:07:17;;;;;;;;;;;;;;;18.02;42.10;100989.22;5000548;28;1091;-56
2023/12/11 05:09:43;;;;;;;;;;;;;;;16.95;43.90;100994.38;4999861;28;1084;-56
2023/12/11 05:12:09;;;;;;;;;;;;;;;16.60;44.35;100988.44;5000375;28;1069;-56
2023/12/11 05:14:34;;;;;;;;;;;;;;;17.84;42.52;100999.69;4993837;28;1107;-55
2023/12/11 05:17:00;;;;;;;;;;;;;;;16.89;44.20;100996.28;4990423;28;904;-55
2023/12/11 05:19:25;;;;;;;;;;;;;;;16.53;44.48;101009.03;4999333;28;953;-51
2023/12/11 05:21:51;;;;;;;;;;;;;;;16.27;44.58;101008.06;4987090;28;1164;-55
2023/12/11 05:24:17;;;;;;;;;;;;;;;17.58;43.04;101009.84;4986808;28;1979;-56
2023/12/11 05:26:42;;;;;;;;;;;;;;;16.69;44.76;101013.50;4993060;28;1168;-57
2023/12/11 05:29:08;;;;;;;;;;;;;;;17.43;43.04;101010.66;4985020;28;874;-56
2023/12/11 05:31:33;;;;;;;;;;;;;;;16.89;44.15;101025.69;4999475;28;1096;-57
2023/12/11 05:33:59;;;;;;;;;;;;;;;16.53;44.83;101017.25;4999531;28;1087;-54
2023/12/11 05:36:24;;;;;;;;;;;;;;;16.30;45.46;101013.00;4985912;28;1075;-55
2023/12/11 05:38:50;;;;;;;;;;;;;;;16.06;45.82;101006.03;4986783;28;1290;-56
2023/12/11 05:41:16;;;;;;;;;;;;;;;15.90;46.21;101007.00;4994270;28;1050;-55
2023/12/11 05:43:42;;;;;;;;;;;;;;;15.74;46.46;101008.78;4985996;28;1914;-56
2023/12/11 05:46:08;;;;;;;;;;;;;;;15.61;46.75;101015.50;4986051;28;1102;-53
2023/12/11 05:48:33;;;;;;;;;;;;;;;16.39;45.29;101025.97;4985860;28;1033;-53
2023/12/11 05:50:59;;;;;;;;;;;;;;;17.58;42.46;101037.34;4987240;28;1079;-55
2023/12/11 05:53:24;;;;;;;;;;;;;;;17.31;42.78;101038.41;4992160;28;1112;-54
2023/12/11 05:55:50;;;;;;;;;;;;;;;16.45;44.53;101042.47;4979430;28;1119;-54
2023/12/11 05:58:16;;;;;;;;;;;;;;;16.14;45.33;101053.25;4998334;28;1280;-55
2023/12/11 06:00:41;;;;;;;;;;;;;;;15.82;46.16;101052.22;4987291;28;1055;-56
2023/12/11 06:03:07;;;;;;;;;;;;;;;15.63;46.57;101046.25;4991932;28;1911;-56
2023/12/11 06:05:32;;;;;;;;;;;;;;;17.18;43.12;101055.41;4986150;28;1414;-56
2023/12/11 06:07:58;;;;;;;;;;;;;;;17.87;41.53;101056.06;4998186;28;1081;-56
2023/12/11 06:10:24;;;;;;;;;;;;;;;16.80;43.67;101061.03;4987094;28;1127;-57
2023/12/11 06:12:50;;;;;;;;;;;;;;;16.24;44.88;101054.16;4992200;28;1057;-58
2023/12/11 06:15:15;;;;;;;;;;;;;;;15.94;45.49;101065.72;4992097;28;1227;-57
2023/12/11 06:17:41;;;;;;;;;;;;;;;15.71;46.05;101064.97;4998417;28;909;-56
2023/12/11 06:20:07;;;;;;;;;;;;;;;16.75;43.70;101061.03;4986377;28;1235;-57
2023/12/11 06:22:33;;;;;;;;;;;;;;;17.79;41.63;101062.94;4992407;28;1037;-56
2023/12/11 06:24:58;;;;;;;;;;;;;;;16.81;43.48;101062.69;4992021;28;1910;-55
2023/12/11 06:27:27;;;;;;;;;;;;;;;16.27;44.90;101058.28;4985163;28;1064;-56
2023/12/11 06:29:53;;;;;;;;;;;;;;;16.35;44.53;101073.41;4979541;28;1080;-55
2023/12/11 06:32:18;;;;;;;;;;;;;;;17.63;41.71;101056.63;4992275;28;1274;-56
2023/12/11 06:34:44;;;;;;;;;;;;;;;17.06;42.63;101064.72;4992443;28;1207;-56
2023/12/11 06:37:10;;;;;;;;;;;;;;;16.38;44.49;101076.47;4984594;28;1112;-55
2023/12/11 06:39:36;;;;;;;;;;;;;;;16.02;45.31;101073.47;4986404;28;1094;-55
2023/12/11 06:42:02;;;;;;;;;;;;;;;17.28;42.34;101074.69;4992251;28;1337;-56
2023/12/11 06:44:27;;;;;;;;;;;;;;;17.58;41.69;101076.66;4978859;28;2311;-56
2023/12/11 06:46:53;;;;;;;;;;;;;;;16.61;43.58;101090.88;4991662;28;1073;-56
2023/12/11 06:49:18;;;;;;;;;;;;;;;16.19;44.88;101097.19;4978478;28;1080;-55
2023/12/11 06:51:44;;;;;;;;;;;;;;;15.97;45.10;101091.81;4983206;28;1213;-56
2023/12/11 06:54:10;;;;;;;;;;;;;;;15.78;45.91;101097.66;4991369;28;1235;-58
2023/12/11 06:56:36;;;;;;;;;;;;;;;17.18;42.64;101099.38;4985211;28;1078;-56
2023/12/11 06:59:02;;;;;;;;;;;;;;;17.64;41.59;101104.19;4997875;28;916;-56
2023/12/11 07:01:31;;;;;;;;;;;;;;;16.53;43.62;101105.91;4997865;28;1056;-56
2023/12/11 07:03:56;;;;;;;;;;;;;;;16.13;44.82;101109.19;4995405;28;1971;-56
2023/12/11 07:06:22;;;;;;;;;;;;;;;16.07;44.95;101109.19;4984748;28;1195;-57
2023/12/11 07:08:48;;;;;;;;;;;;;;;17.49;41.97;101114.06;4997708;28;1040;-56
2023/12/11 07:11:13;;;;;;;;;;;;;;;17.52;41.40;101113.50;4984502;28;1149;-56
2023/12/11 07:13:42;;;;;;;;;;;;;;;16.60;43.58;101119.41;5000201;28;1171;-53
2023/12/11 07:16:08;;;;;;;;;;;;;;;16.18;44.71;101117.47;4968156;28;1041;-56
2023/12/11 07:18:33;;;;;;;;;;;;;;;15.94;45.12;101128.00;4997059;28;1096;-56
2023/12/11 07:20:59;;;;;;;;;;;;;;;16.13;44.96;101128.41;4985234;28;1243;-54
2023/12/11 07:23:25;;;;;;;;;;;;;;;17.55;41.49;101125.88;4984221;28;1902;-56
2023/12/11 07:25:50;;;;;;;;;;;;;;;17.42;41.84;101132.72;4985251;28;1107;-56
2023/12/11 07:28:16;;;;;;;;;;;;;;;16.51;43.86;101131.97;4993633;28;1053;-56
2023/12/11 07:30:41;;;;;;;;;;;;;;;16.11;44.60;101123.19;4997129;28;1483;-55
2023/12/11 07:33:08;;;;;;;;;;;;;;;15.83;45.38;101132.53;4997505;28;1123;-52
2023/12/11 07:35:35;;;;;;;;;;;;;;;16.38;44.01;101130.53;4997494;28;1098;-56
2023/12/11 07:38:01;;;;;;;;;;;;;;;17.70;41.27;101125.91;4996748;28;1132;-53
2023/12/11 07:40:27;;;;;;;;;;;;;;;17.03;42.46;101117.47;4967683;28;1151;-52
2023/12/11 07:42:53;;;;;;;;;;;;;;;16.42;44.08;101126.16;4990617;28;1985;-59
2023/12/11 07:45:19;;;;;;;;;;;;;;;16.02;44.65;101119.25;4997116;28;1081;-54
2023/12/11 07:47:44;;;;;;;;;;;;;;;15.75;45.37;101133.78;4984203;28;1064;-55
2023/12/11 07:50:10;;;;;;;;;;;;;;;16.87;42.98;101143.19;4990136;28;1176;-56
2023/12/11 07:52:35;;;;;;;;;;;;;;;17.88;40.61;101127.31;4986030;28;1091;-57
2023/12/11 07:55:01;;;;;;;;;;;;;;;17.24;41.96;101132.13;4996397;28;1147;-56
2023/12/11 07:57:27;;;;;;;;;;;;;;;16.54;43.43;101142.44;4984962;28;1137;-55
2023/12/11 07:59:53;;;;;;;;;;;;;;;16.12;44.41;101132.22;4996027;28;1154;-55
2023/12/11 08:02:18;;;;;;;;;;;;;;;15.90;45.10;101119.44;4996835;28;1057;-58
2023/12/11 08:04:44;;;;;;;;;;;;;;;17.37;41.84;101117.03;4982449;28;1914;-54
2023/12/11 08:07:10;;;;;;;;;;;;;;;17.41;41.50;101112.66;4997244;28;1040;-51
2023/12/11 08:09:36;;;;;;;;;;;;;;;16.51;43.61;101107.28;4990871;28;1211;-57
2023/12/11 08:12:02;;;;;;;;;;;;;;;16.15;44.41;101113.34;4977589;28;1052;-55
2023/12/11 08:14:28;;;;;;;;;;;;;;;16.16;44.71;101111.41;4990856;28;1030;-55
2023/12/11 08:16:53;;;;;;;;;;;;;;;17.57;41.51;101118.19;4983753;28;1116;-56
2023/12/11 08:19:19;;;;;;;;;;;;;;;17.27;41.98;101108.78;4990348;28;1076;-51
2023/12/11 08:21:45;;;;;;;;;;;;;;;16.55;43.65;101111.13;4988863;28;1116;-52
2023/12/11 08:24:10;;;;;;;;;;;;;;;16.14;44.53;101110.88;4983248;28;1907;-56
2023/12/11 08:26:36;;;;;;;;;;;;;;;15.90;44.96;101117.50;4996251;28;1122;-56
2023/12/11 08:29:01;;;;;;;;;;;;;;;16.83;43.12;101106.34;4990645;28;1432;-49
2023/12/11 08:31:27;;;;;;;;;;;;;;;17.87;40.83;101102.84;4988731;28;1109;-54
2023/12/11 08:33:53;;;;;;;;;;;;;;;16.84;42.96;101097.84;4991430;28;1056;-52
2023/12/11 08:36:18;;;;;;;;;;;;;;;16.29;44.28;101088.22;4988623;28;1032;-55
2023/12/11 08:38:44;;;;;;;;;;;;;;;15.98;44.66;101094.28;4983492;28;1187;-53
2023/12/11 08:41:10;;;;;;;;;;;;;;;16.06;44.71;101085.56;4990030;28;1044;-55
2023/12/11 08:43:36;;;;;;;;;;;;;;;17.51;41.66;101080.78;4982557;28;1983;-55
2023/12/11 08:46:02;;;;;;;;;;;;;;;17.55;41.40;101082.72;4984346;28;1083;-58
2023/12/11 08:48:27;;;;;;;;;;;;;;;16.63;43.25;101082.38;4989649;28;1160;-57
2023/12/11 08:50:53;;;;;;;;;;;;;;;16.25;44.08;101077.75;4989526;28;1182;-52
2023/12/11 08:53:20;;;;;;;;;;;;;;;15.96;44.78;101069.03;4978057;28;1115;-51
2023/12/11 08:55:45;;;;;;;;;;;;;;;16.37;44.14;101068.50;4989185;28;1084;-53
2023/12/11 08:58:11;;;;;;;;;;;;;;;17.72;41.30;101074.19;4994714;28;1083;-55
2023/12/11 09:00:37;;;;;;;;;;;;;;;16.92;42.58;101077.31;4996669;28;1188;-56
2023/12/11 09:03:03;;;;;;;;;;;;;;;16.29;44.12;101061.59;4995594;28;1898;-55
2023/12/11 09:05:28;;;;;;;;;;;;;;;16.05;44.61;101059.22;4990945;28;1021;-56
2023/12/11 09:07:55;;;;;;;;;;;;;;;15.81;45.48;101053.28;4983044;28;1399;-56
2023/12/11 09:10:21;;;;;;;;;;;;;;;17.01;42.83;101053.75;4996546;28;1441;-56
2023/12/11 09:12:46;;;;;;;;;;;;;;;17.97;40.49;101055.28;4977653;28;1063;-55
2023/12/11 09:15:12;;;;;;;;;;;;;;;16.97;42.51;101052.63;4976730;28;1084;-56
2023/12/11 09:17:38;;;;;;;;;;;;;;;16.37;43.92;101055.59;4978507;28;1202;-56
2023/12/11 09:20:06;;;;;;;;;;;;;;;16.08;44.50;101055.13;4988973;28;1156;-56
2023/12/11 09:22:31;;;;;;;;;;;;;;;16.98;42.96;101051.50;4988703;28;1075;-57
2023/12/11 09:24:57;;;;;;;;;;;;;;;17.88;40.56;101049.44;4989632;28;1910;-57
2023/12/11 09:27:23;;;;;;;;;;;;;;;16.82;42.86;101047.84;4977145;28;1100;-56
2023/12/11 09:29:48;;;;;;;;;;;;;;;16.25;44.16;101038.50;4980417;28;1231;-56
2023/12/11 09:32:15;;;;;;;;;;;;;;;15.99;44.81;101041.09;4995303;28;1062;-52
2023/12/11 09:34:41;;;;;;;;;;;;;;;16.21;44.65;101027.22;4984038;28;1072;-55
2023/12/11 09:37:06;;;;;;;;;;;;;;;17.66;41.20;101019.50;4978115;28;1119;-57
2023/12/11 09:39:32;;;;;;;;;;;;;;;17.07;42.62;101021.63;4991829;28;1056;-56
2023/12/11 09:41:58;;;;;;;;;;;;;;;16.46;44.03;101012.00;4990899;28;1091;-56
2023/12/11 09:44:23;;;;;;;;;;;;;;;16.15;44.74;101008.28;4979599;28;1906;-56
2023/12/11 09:46:54;;;;;;;;;;;;;;;15.86;45.39;101000.38;4984114;28;1092;-56
2023/12/11 09:49:20;;;;;;;;;;;;;;;16.53;43.91;101006.28;4985687;28;1279;-56
2023/12/11 09:51:45;;;;;;;;;;;;;;;17.73;41.17;101004.34;4998796;28;1104;-56
2023/12/11 09:54:11;;;;;;;;;;;;;;;17.21;42.20;100999.94;4995621;28;1126;-56
2023/12/11 09:56:37;;;;;;;;;;;;;;;16.48;43.75;100998.00;4986307;28;1131;-56
2023/12/11 09:59:02;;;;;;;;;;;;;;;16.10;44.55;100989.84;4985639;28;1068;-57
2023/12/11 10:01:28;;;;;;;;;;;;;;;15.90;45.29;100993.28;4992483;28;1046;-56
2023/12/11 10:03:54;;;;;;;;;;;;;;;16.92;42.92;100992.16;4992038;28;1906;-56
2023/12/11 10:06:19;;;;;;;;;;;;;;;17.99;40.66;100987.84;4988403;28;1028;-57
2023/12/11 10:08:52;;;;;;;;;;;;;;;17.21;42.31;100989.75;4991796;28;1069;-56
2023/12/11 10:11:19;;;;;;;;;;;;;;;16.56;43.76;100989.25;4992688;28;1057;-56
2023/12/11 10:13:44;;;;;;;;;;;;;;;16.15;44.69;100983.59;4979632;28;1151;-56
2023/12/11 10:16:43;;;;;;;;;;;;;;;16.10;44.75;100980.81;4979116;28;1219;-54
2023/12/11 10:19:09;;;;;;;;;;;;;;;17.82;41.26;100987.28;4977737;28;1231;-56
2023/12/11 10:21:37;;;;;;;;;;;;;;;17.30;41.97;100992.78;4979586;28;1093;-56
2023/12/11 10:24:03;;;;;;;;;;;;;;;16.57;43.74;100983.50;4997614;28;1903;-55
2023/12/11 10:26:29;;;;;;;;;;;;;;;16.24;44.34;100981.97;4998936;28;1032;-57
2023/12/11 10:28:55;;;;;;;;;;;;;;;15.99;45.24;100978.00;4985776;28;1068;-56
2023/12/11 10:31:34;;;;;;;;;;;;;;;16.92;43.28;100975.69;4981312;28;899;-57
2023/12/11 10:34:03;;;;;;;;;;;;;;;17.96;40.62;100971.88;4973205;28;1161;-53
2023/12/11 10:36:28;;;;;;;;;;;;;;;16.84;43.13;100963.25;4997801;28;1076;-49
2023/12/11 10:39:05;;;;;;;;;;;;;;;16.41;44.13;100968.91;4979338;28;1135;-54
2023/12/11 10:41:31;;;;;;;;;;;;;;;16.04;45.19;100966.22;5007276;28;1116;-53
2023/12/11 10:43:56;;;;;;;;;;;;;;;15.84;45.40;100966.94;4978630;28;1903;-54
2023/12/11 10:46:22;;;;;;;;;;;;;;;17.13;42.91;100975.75;4993293;28;1100;-53
2023/12/11 10:48:47;;;;;;;;;;;;;;;17.75;41.18;100969.16;4988442;28;1123;-51
2023/12/11 10:51:13;;;;;;;;;;;;;;;16.69;43.39;100966.81;4979082;28;1168;-53
2023/12/11 10:53:38;;;;;;;;;;;;;;;16.26;44.64;100963.34;5001119;28;1056;-54
2023/12/11 10:56:04;;;;;;;;;;;;;;;16.08;45.12;100964.59;4990545;28;966;-49
2023/12/11 10:58:30;;;;;;;;;;;;;;;17.09;42.65;100962.53;4992705;28;1218;-49
2023/12/11 11:00:56;;;;;;;;;;;;;;;18.04;40.63;100946.56;5001685;28;1048;-48
2023/12/11 11:03:21;;;;;;;;;;;;;;;16.98;42.75;100954.53;4983145;28;1903;-51
2023/12/11 11:05:47;;;;;;;;;;;;;;;16.49;44.22;100953.00;4987319;28;1008;-54
2023/12/11 11:08:25;;;;;;;;;;;;;;;16.13;44.95;100950.09;4986095;28;1116;-50
2023/12/11 11:10:53;;;;;;;;;;;;;;;16.28;44.80;100952.91;4982003;28;1091;-53
2023/12/11 11:13:20;;;;;;;;;;;;;;;17.71;41.50;100940.56;4987381;28;1068;-52
2023/12/11 11:15:55;;;;;;;;;;;;;;;17.14;42.76;100950.72;4981062;28;1091;-51
2023/12/11 11:18:21;;;;;;;;;;;;;;;16.50;44.13;100946.44;4982562;28;1151;-45
2023/12/11 11:21:06;;;;;;;;;;;;;;;16.16;45.04;100944.91;4991094;28;1003;-49
2023/12/11 11:23:34;;;;;;;;;;;;;;;15.93;45.62;100937.91;4977394;28;2069;-53
2023/12/11 11:26:00;;;;;;;;;;;;;;;17.25;42.53;100946.03;4999441;28;1152;-52
2023/12/11 11:28:34;;;;;;;;;;;;;;;17.82;41.05;100938.59;4997273;28;1055;-52
2023/12/11 11:31:00;;;;;;;;;;;;;;;16.80;43.44;100939.38;4987242;28;1457;-51
2023/12/11 11:33:25;;;;;;;;;;;;;;;16.34;44.40;100940.88;4993017;28;1160;-51
2023/12/11 11:35:52;;;;;;;;;;;;;;;16.07;45.19;100930.88;4982984;28;1327;-49
2023/12/11 11:38:21;;;;;;;;;;;;;;;16.12;45.32;100937.44;4992767;28;1129;-53
2023/12/11 11:40:48;;;;;;;;;;;;;;;17.57;42.06;100921.06;4997703;28;1095;-51
2023/12/11 11:43:14;;;;;;;;;;;;;;;17.52;42.00;100936.72;4996374;28;1911;-46
2023/12/11 11:45:40;;;;;;;;;;;;;;;16.65;43.89;100926.41;4988318;28;1164;-59
2023/12/11 11:48:06;;;;;;;;;;;;;;;16.33;44.87;100927.44;4977376;28;1227;-52
2023/12/11 11:50:31;;;;;;;;;;;;;;;16.06;45.18;100922.88;4987294;28;1128;-55
2023/12/11 11:53:09;;;;;;;;;;;;;;;15.89;45.84;100926.66;4981327;28;1188;-55
2023/12/11 11:55:37;;;;;;;;;;;;;;;17.04;43.26;100918.56;5006173;28;1017;-58
2023/12/11 11:58:12;;;;;;;;;;;;;;;17.73;41.60;100927.34;4992392;28;1144;-56
2023/12/11 12:00:38;;;;;;;;;;;;;;;16.65;43.87;100923.66;4989495;28;1104;-57
2023/12/11 12:03:04;;;;;;;;;;;;;;;16.28;44.93;100924.66;4981356;28;1985;-54
2023/12/11 12:05:33;;;;;;;;;;;;;;;15.98;45.34;100910.53;4982361;28;1080;-55
2023/12/11 12:08:00;;;;;;;;;;;;;;;16.54;44.44;100914.59;4978170;28;855;-55
2023/12/11 12:10:25;;;;;;;;;;;;;;;17.78;41.57;100894.34;4986832;28;1129;-54
2023/12/11 12:12:57;;;;;;;;;;;;;;;16.82;43.55;100893.25;4981805;28;1223;-57
2023/12/11 12:15:23;;;;;;;;;;;;;;;16.32;44.85;100881.88;4987209;28;1156;-55
2023/12/11 12:17:48;;;;;;;;;;;;;;;15.94;45.28;100862.78;4984553;28;1115;-55
2023/12/11 12:20:17;;;;;;;;;;;;;;;16.13;45.57;100885.09;4988320;28;874;-55
2023/12/11 12:22:58;;;;;;;;;;;;;;;17.62;41.87;100885.28;4980375;28;1044;-56
2023/12/11 12:25:26;;;;;;;;;;;;;;;17.00;43.30;100884.50;4978004;28;1256;-56
2023/12/11 12:27:52;;;;;;;;;;;;;;;16.43;44.69;100887.09;5010869;28;1113;-52
2023/12/11 12:30:19;;;;;;;;;;;;;;;16.18;45.00;100873.31;4985471;28;1199;-54
2023/12/11 12:32:46;;;;;;;;;;;;;;;15.86;45.95;100875.06;4990905;28;1112;-53
2023/12/11 12:35:11;;;;;;;;;;;;;;;15.85;45.89;100869.84;5005063;28;1079;-54
2023/12/11 12:37:37;;;;;;;;;;;;;;;17.31;42.78;100861.69;4986841;28;1028;-55
2023/12/11 12:40:06;;;;;;;;;;;;;;;17.39;42.19;100858.38;4990112;28;1188;-54
2023/12/11 12:42:31;;;;;;;;;;;;;;;16.50;44.48;100851.16;4977562;28;1068;-52